Time;durP1;ratioP1;P1;durP2;ratioP2;P2;SDS_P1;SDS_P2;PMS_P1;PMS_P2;Temp;Humidity;BMP_temperature;BMP_pressure;BME280_temperature;BME280_humidity;BME280_pressure;Samples;Min_cycle;Max_cycle;Signal;HPM_P1;HPM_P2
2022/01/15 00:01:18;;;;;;;88.67;24.50;;;;;;;;;;5037498;28;20049;-68
2022/01/15 00:03:44;;;;;;;111.33;25.07;;;;;;;;;;5040097;28;20124;-68
2022/01/15 00:06:10;;;;;;;120.53;26.27;;;;;;;;;;5038580;28;20045;-68
2022/01/15 00:08:36;;;;;;;123.57;27.27;;;;;;;;;;5040580;28;20612;-69
2022/01/15 00:11:02;;;;;;;110.93;25.90;;;;;;;;;;5035525;28;20046;-68
2022/01/15 00:13:30;;;;;;;114.60;25.33;;;;;;;;;;5039180;28;20037;-69
2022/01/15 00:16:08;;;;;;;123.97;26.90;;;;;;;;;;5040227;28;20040;-68
2022/01/15 00:18:46;;;;;;;151.40;29.37;;;;;;;;;;5038664;28;20067;-68
2022/01/15 00:21:13;;;;;;;97.33;21.50;;;;;;;;;;5037011;28;20132;-68
2022/01/15 00:23:39;;;;;;;76.70;20.13;;;;;;;;;;5042343;28;20052;-68
2022/01/15 00:26:05;;;;;;;97.03;23.50;;;;;;;;;;5040720;28;20039;-68
2022/01/15 00:28:32;;;;;;;130.37;27.77;;;;;;;;;;5036305;28;20100;-68
2022/01/15 00:30:58;;;;;;;96.90;21.57;;;;;;;;;;5035832;28;20076;-67
2022/01/15 00:33:25;;;;;;;101.03;25.13;;;;;;;;;;5037486;28;20045;-68
2022/01/15 00:35:52;;;;;;;84.87;21.43;;;;;;;;;;5040285;28;20102;-68
2022/01/15 00:38:18;;;;;;;89.27;22.13;;;;;;;;;;5038415;28;20044;-68
2022/01/15 00:40:44;;;;;;;134.50;26.50;;;;;;;;;;5036211;28;20136;-67
2022/01/15 00:43:10;;;;;;;103.13;24.13;;;;;;;;;;5038324;28;20033;-68
2022/01/15 00:45:36;;;;;;;124.63;25.77;;;;;;;;;;5037677;28;20091;-68
2022/01/15 00:48:02;;;;;;;117.07;25.50;;;;;;;;;;5037824;28;20053;-68
2022/01/15 00:50:28;;;;;;;105.80;24.33;;;;;;;;;;5038392;28;20046;-68
2022/01/15 00:52:54;;;;;;;122.57;25.90;;;;;;;;;;5039735;28;20697;-68
2022/01/15 00:55:20;;;;;;;127.40;25.93;;;;;;;;;;5036051;28;20080;-68
2022/01/15 00:57:46;;;;;;;137.03;26.53;;;;;;;;;;5039431;28;20049;-68
2022/01/15 01:00:17;;;;;;;125.93;25.90;;;;;;;;;;5037156;28;20053;-68
2022/01/15 01:02:43;;;;;;;115.87;25.33;;;;;;;;;;5038259;28;20044;-68
2022/01/15 01:05:10;;;;;;;164.37;28.40;;;;;;;;;;5038105;28;20083;-68
2022/01/15 01:07:36;;;;;;;131.97;26.70;;;;;;;;;;5036389;28;20041;-68
2022/01/15 01:21:20;;;;;;;191.93;35.23;;;;;;;;;;5036115;28;20833;-68
2022/01/15 01:23:46;;;;;;;189.47;32.77;;;;;;;;;;5036673;28;20055;-67
2022/01/15 01:26:26;;;;;;;190.77;32.87;;;;;;;;;;5029507;28;20088;-68
2022/01/15 01:29:03;;;;;;;168.13;31.87;;;;;;;;;;5031672;28;20051;-68
2022/01/15 01:31:38;;;;;;;213.37;34.00;;;;;;;;;;5032442;28;20509;-67
2022/01/15 01:34:12;;;;;;;180.03;30.80;;;;;;;;;;5031724;28;20084;-68
2022/01/15 01:36:47;;;;;;;;;;;;;;;;;;5036181;28;20204;-68
2022/01/15 01:39:18;;;;;;;166.50;32.17;;;;;;;;;;5036476;28;19927;-67
2022/01/15 01:42:03;;;;;;;142.53;30.30;;;;;;;;;;5037097;28;20045;-68
2022/01/15 01:44:29;;;;;;;158.17;29.57;;;;;;;;;;5035965;28;20123;-68
2022/01/15 01:47:03;;;;;;;153.40;29.67;;;;;;;;;;5035980;28;20855;-68
2022/01/15 01:49:29;;;;;;;125.17;28.00;;;;;;;;;;5035889;28;20502;-68
2022/01/15 01:51:55;;;;;;;160.63;31.97;;;;;;;;;;5035204;28;20044;-68
2022/01/15 01:54:21;;;;;;;135.33;28.53;;;;;;;;;;5036592;28;20048;-68
2022/01/15 01:56:48;;;;;;;142.43;28.37;;;;;;;;;;5038543;28;20809;-68
2022/01/15 01:59:16;;;;;;;175.17;33.00;;;;;;;;;;5036795;28;20045;-68
2022/01/15 02:01:42;;;;;;;134.70;28.77;;;;;;;;;;5038292;28;20125;-68
2022/01/15 02:04:08;;;;;;;131.13;28.03;;;;;;;;;;5038695;28;21222;-68
2022/01/15 02:06:37;;;;;;;156.50;29.43;;;;;;;;;;5036459;28;20064;-68
2022/01/15 02:09:07;;;;;;;182.33;33.47;;;;;;;;;;5036761;28;20048;-68
2022/01/15 02:11:33;;;;;;;164.80;30.43;;;;;;;;;;5036816;28;20048;-68
2022/01/15 02:13:59;;;;;;;114.37;26.23;;;;;;;;;;5038157;28;20526;-68
2022/01/15 02:16:25;;;;;;;119.27;27.03;;;;;;;;;;5033923;28;20042;-68
2022/01/15 02:18:53;;;;;;;123.47;25.63;;;;;;;;;;5039280;28;20551;-68
2022/01/15 02:23:46;;;;;;;120.63;25.90;;;;;;;;;;5037884;28;20152;-68
2022/01/15 02:26:16;;;;;;;124.37;26.87;;;;;;;;;;5036657;28;20484;-68
2022/01/15 02:28:43;;;;;;;124.67;26.47;;;;;;;;;;5036724;28;20131;-68
2022/01/15 02:31:10;;;;;;;125.27;26.80;;;;;;;;;;5034692;28;20045;-67
2022/01/15 02:33:37;;;;;;;154.63;28.20;;;;;;;;;;5038843;28;20515;-68
2022/01/15 02:36:04;;;;;;;190.17;32.30;;;;;;;;;;5037422;28;20488;-68
2022/01/15 02:38:30;;;;;;;158.27;28.77;;;;;;;;;;5042064;28;20475;-68
2022/01/15 02:40:56;;;;;;;131.70;27.57;;;;;;;;;;5040447;28;20073;-68
2022/01/15 02:43:30;;;;;;;113.20;24.97;;;;;;;;;;5041245;28;20044;-68
2022/01/15 02:45:57;;;;;;;81.90;20.90;;;;;;;;;;5038049;28;20053;-68
2022/01/15 02:48:30;;;;;;;116.60;24.07;;;;;;;;;;5039599;28;20041;-68
2022/01/15 02:50:57;;;;;;;69.20;17.83;;;;;;;;;;5035120;28;20067;-68
2022/01/15 02:53:23;;;;;;;105.47;23.13;;;;;;;;;;5039294;28;20044;-68
2022/01/15 02:55:50;;;;;;;91.40;21.73;;;;;;;;;;5040774;28;20171;-68
2022/01/15 02:58:17;;;;;;;94.97;22.07;;;;;;;;;;5037744;28;20042;-68
2022/01/15 03:00:43;;;;;;;74.00;19.43;;;;;;;;;;5040819;28;20049;-68
2022/01/15 03:03:10;;;;;;;80.83;20.70;;;;;;;;;;5038905;28;20366;-68
2022/01/15 03:05:35;;;;;;;95.30;22.03;;;;;;;;;;5039421;28;20594;-68
2022/01/15 03:08:02;;;;;;;68.80;17.90;;;;;;;;;;5042631;28;20074;-68
2022/01/15 03:10:28;;;;;;;77.60;19.73;;;;;;;;;;5039624;28;20124;-68
2022/01/15 03:12:55;;;;;;;81.83;20.80;;;;;;;;;;5041477;28;20163;-68
2022/01/15 03:15:22;;;;;;;92.90;22.23;;;;;;;;;;5040816;28;20129;-68
2022/01/15 03:17:48;;;;;;;78.47;19.20;;;;;;;;;;5039689;28;20085;-68
2022/01/15 03:20:15;;;;;;;81.23;18.63;;;;;;;;;;5041035;28;20045;-68
2022/01/15 03:22:41;;;;;;;89.10;19.93;;;;;;;;;;5038842;28;20048;-68
2022/01/15 03:25:08;;;;;;;79.63;19.23;;;;;;;;;;5039326;28;20045;-68
2022/01/15 03:27:34;;;;;;;60.50;17.60;;;;;;;;;;5040863;28;20041;-68
2022/01/15 03:30:00;;;;;;;52.23;16.80;;;;;;;;;;5040102;28;20048;-68
2022/01/15 03:32:26;;;;;;;73.47;15.63;;;;;;;;;;5038332;28;20067;-68
2022/01/15 03:34:52;;;;;;;42.37;13.30;;;;;;;;;;5041852;28;20048;-68
2022/01/15 03:37:18;;;;;;;33.33;10.73;;;;;;;;;;5033534;28;20045;-68
2022/01/15 03:39:44;;;;;;;59.17;15.80;;;;;;;;;;5030540;28;20037;-68
2022/01/15 03:42:14;;;;;;;35.40;12.07;;;;;;;;;;5031757;28;20041;-68
2022/01/15 03:44:45;;;;;;;31.87;11.87;;;;;;;;;;5031279;28;20045;-68
2022/01/15 03:47:11;;;;;;;44.00;13.77;;;;;;;;;;5030974;28;20379;-68
2022/01/15 03:49:38;;;;;;;44.20;13.80;;;;;;;;;;5031132;28;20037;-67
2022/01/15 03:52:05;;;;;;;39.37;12.53;;;;;;;;;;5030144;28;20033;-68
2022/01/15 03:54:31;;;;;;;31.73;10.63;;;;;;;;;;5012952;28;20132;-67
2022/01/15 03:56:57;;;;;;;44.73;12.50;;;;;;;;;;5030884;28;20519;-68
2022/01/15 03:59:24;;;;;;;36.47;10.43;;;;;;;;;;5031293;28;20046;-68
2022/01/15 04:01:50;;;;;;;36.57;11.37;;;;;;;;;;5031090;28;20072;-68
2022/01/15 04:04:16;;;;;;;56.67;14.17;;;;;;;;;;5030846;28;20041;-68
2022/01/15 04:06:42;;;;;;;39.37;11.23;;;;;;;;;;5030686;28;20103;-68
2022/01/15 04:09:09;;;;;;;36.10;11.63;;;;;;;;;;5031168;28;20757;-68
2022/01/15 04:11:35;;;;;;;33.07;10.30;;;;;;;;;;5029401;28;20496;-68
2022/01/15 04:14:01;;;;;;;34.87;10.63;;;;;;;;;;5030851;28;20048;-68
2022/01/15 04:16:29;;;;;;;25.97;8.23;;;;;;;;;;5028841;28;20042;-68
2022/01/15 04:18:55;;;;;;;17.57;6.63;;;;;;;;;;5030348;28;20115;-68
2022/01/15 04:21:21;;;;;;;19.23;7.27;;;;;;;;;;5030412;28;20038;-68
2022/01/15 04:23:47;;;;;;;13.43;6.07;;;;;;;;;;5030297;28;20103;-68
2022/01/15 04:26:13;;;;;;;14.83;5.47;;;;;;;;;;5030221;28;20045;-68
2022/01/15 04:28:40;;;;;;;16.40;6.37;;;;;;;;;;5031608;28;20495;-68
2022/01/15 04:31:07;;;;;;;10.83;4.90;;;;;;;;;;5029557;28;20057;-68
2022/01/15 04:33:34;;;;;;;10.40;4.93;;;;;;;;;;5028807;28;20045;-68
2022/01/15 04:36:00;;;;;;;11.80;5.87;;;;;;;;;;5029447;28;20045;-67
2022/01/15 04:38:26;;;;;;;14.30;5.90;;;;;;;;;;5028600;28;20159;-68
2022/01/15 04:40:52;;;;;;;11.07;5.37;;;;;;;;;;5029085;28;20095;-68
2022/01/15 04:43:18;;;;;;;9.23;4.97;;;;;;;;;;5027878;28;20903;-68
2022/01/15 04:45:44;;;;;;;9.87;4.93;;;;;;;;;;5029466;28;20045;-68
2022/01/15 04:48:10;;;;;;;11.47;5.17;;;;;;;;;;5027345;28;20128;-68
2022/01/15 04:50:36;;;;;;;7.70;4.63;;;;;;;;;;5027982;28;20049;-68
2022/01/15 04:53:04;;;;;;;11.37;4.87;;;;;;;;;;5026908;28;20053;-68
2022/01/15 04:55:31;;;;;;;11.87;4.63;;;;;;;;;;5027390;28;20132;-67
2022/01/15 04:57:57;;;;;;;10.37;4.57;;;;;;;;;;5028781;28;20045;-68
2022/01/15 05:00:23;;;;;;;16.87;5.80;;;;;;;;;;5028787;28;20058;-67
2022/01/15 05:02:49;;;;;;;14.00;5.87;;;;;;;;;;5029014;28;20049;-68
2022/01/15 05:05:15;;;;;;;8.77;5.27;;;;;;;;;;5029033;28;20488;-68
2022/01/15 05:07:42;;;;;;;14.27;6.30;;;;;;;;;;5028550;28;20052;-68
2022/01/15 05:10:10;;;;;;;13.87;5.60;;;;;;;;;;5028124;28;20519;-68
2022/01/15 05:12:44;;;;;;;19.23;6.43;;;;;;;;;;5028071;28;20045;-68
2022/01/15 05:15:11;;;;;;;14.27;6.50;;;;;;;;;;5028409;28;20124;-68
2022/01/15 05:17:37;;;;;;;15.37;7.20;;;;;;;;;;5028399;28;20057;-68
2022/01/15 05:20:04;;;;;;;14.23;5.60;;;;;;;;;;5027942;28;20531;-68
2022/01/15 05:22:30;;;;;;;12.33;5.63;;;;;;;;;;5028356;28;20053;-68
2022/01/15 05:24:56;;;;;;;14.73;6.37;;;;;;;;;;5029321;28;20419;-68
2022/01/15 05:27:22;;;;;;;16.93;6.40;;;;;;;;;;5028189;28;20048;-68
2022/01/15 05:29:48;;;;;;;14.47;6.90;;;;;;;;;;5029076;28;20045;-67
2022/01/15 05:32:14;;;;;;;11.07;5.83;;;;;;;;;;5028347;28;20049;-68
2022/01/15 05:34:40;;;;;;;14.47;6.20;;;;;;;;;;5027852;28;20049;-68
2022/01/15 05:37:06;;;;;;;15.70;6.83;;;;;;;;;;5029000;28;20049;-68
2022/01/15 05:39:32;;;;;;;20.47;7.13;;;;;;;;;;5009202;28;20958;-67
2022/01/15 05:41:58;;;;;;;17.17;6.67;;;;;;;;;;5009522;28;20052;-68
2022/01/15 05:44:24;;;;;;;16.73;7.27;;;;;;;;;;5025843;28;20041;-68
2022/01/15 05:46:50;;;;;;;18.63;8.07;;;;;;;;;;5029162;28;20041;-68
2022/01/15 05:49:16;;;;;;;17.73;7.80;;;;;;;;;;5029206;28;20443;-68
2022/01/15 05:51:42;;;;;;;20.07;7.87;;;;;;;;;;5029160;28;20045;-67
2022/01/15 05:54:10;;;;;;;19.73;8.33;;;;;;;;;;5027659;28;20128;-67
2022/01/15 05:56:36;;;;;;;20.80;8.67;;;;;;;;;;5027842;28;20613;-67
2022/01/15 05:59:03;;;;;;;21.63;8.63;;;;;;;;;;5044406;28;20455;-68
2022/01/15 06:01:29;;;;;;;22.83;7.93;;;;;;;;;;5028634;28;20084;-68
2022/01/15 06:03:55;;;;;;;16.93;8.00;;;;;;;;;;5028955;28;20515;-68
2022/01/15 06:06:21;;;;;;;16.23;8.20;;;;;;;;;;5026779;28;20095;-68
2022/01/15 06:08:47;;;;;;;15.93;7.77;;;;;;;;;;5028668;28;20053;-68
2022/01/15 06:11:17;;;;;;;16.10;7.17;;;;;;;;;;5028684;28;20037;-68
2022/01/15 06:13:47;;;;;;;13.47;6.97;;;;;;;;;;5028578;28;20052;-68
2022/01/15 06:16:13;;;;;;;21.70;8.10;;;;;;;;;;5028756;28;20123;-68
2022/01/15 06:18:39;;;;;;;13.87;6.47;;;;;;;;;;5028630;28;20083;-68
2022/01/15 06:21:05;;;;;;;12.83;6.77;;;;;;;;;;5027363;28;20046;-68
2022/01/15 06:23:31;;;;;;;15.20;6.57;;;;;;;;;;5028089;28;20045;-68
2022/01/15 06:25:57;;;;;;;14.87;6.67;;;;;;;;;;5028330;28;20055;-68
2022/01/15 06:28:23;;;;;;;13.33;6.67;;;;;;;;;;5028145;28;20132;-68
2022/01/15 06:30:49;;;;;;;14.63;6.20;;;;;;;;;;5028104;28;20044;-68
2022/01/15 06:33:15;;;;;;;16.00;6.47;;;;;;;;;;5027732;28;20400;-68
2022/01/15 06:35:41;;;;;;;16.20;6.77;;;;;;;;;;5028558;28;20041;-68
2022/01/15 06:38:08;;;;;;;17.70;6.90;;;;;;;;;;5028326;28;20634;-68
2022/01/15 06:40:34;;;;;;;16.50;6.93;;;;;;;;;;5027598;28;20096;-68
2022/01/15 06:43:00;;;;;;;17.13;7.63;;;;;;;;;;5028455;28;20053;-68
2022/01/15 06:45:30;;;;;;;22.27;8.27;;;;;;;;;;5027284;28;20049;-68
2022/01/15 06:47:56;;;;;;;29.80;9.73;;;;;;;;;;5026696;28;20053;-68
2022/01/15 06:50:24;;;;;;;20.80;8.60;;;;;;;;;;5028726;28;20037;-68
2022/01/15 06:52:50;;;;;;;21.30;8.80;;;;;;;;;;5028089;28;20507;-68
2022/01/15 06:55:16;;;;;;;27.33;9.23;;;;;;;;;;5027838;28;20492;-68
2022/01/15 06:57:42;;;;;;;17.37;7.97;;;;;;;;;;5043054;28;20556;-68
2022/01/15 07:00:09;;;;;;;21.07;7.70;;;;;;;;;;5027593;28;20052;-68
2022/01/15 07:02:35;;;;;;;14.27;6.27;;;;;;;;;;5026782;28;20045;-68
2022/01/15 07:05:01;;;;;;;13.97;6.73;;;;;;;;;;5028588;28;20102;-69
2022/01/15 07:07:27;;;;;;;12.13;5.60;;;;;;;;;;5026977;28;20093;-68
2022/01/15 07:09:53;;;;;;;16.03;6.97;;;;;;;;;;5026871;28;20500;-68
2022/01/15 07:12:19;;;;;;;14.80;6.53;;;;;;;;;;5026915;28;20128;-68
2022/01/15 07:14:45;;;;;;;16.57;6.93;;;;;;;;;;5027840;28;20049;-68
2022/01/15 07:17:11;;;;;;;19.40;7.10;;;;;;;;;;5027556;28;20132;-68
2022/01/15 07:19:38;;;;;;;16.03;7.00;;;;;;;;;;5027638;28;20133;-67
2022/01/15 07:22:08;;;;;;;16.00;7.57;;;;;;;;;;5027829;28;20546;-67
2022/01/15 07:24:34;;;;;;;17.37;7.97;;;;;;;;;;5030844;28;20452;-68
2022/01/15 07:27:00;;;;;;;17.17;7.33;;;;;;;;;;5030110;28;20050;-67
2022/01/15 07:29:29;;;;;;;16.67;7.50;;;;;;;;;;5030114;28;20080;-67
2022/01/15 07:31:55;;;;;;;12.73;7.33;;;;;;;;;;5029809;28;20046;-68
2022/01/15 07:34:21;;;;;;;17.23;7.53;;;;;;;;;;5031388;28;20064;-68
2022/01/15 07:36:51;;;;;;;17.87;8.00;;;;;;;;;;5031642;28;20049;-68
2022/01/15 07:39:17;;;;;;;19.70;7.83;;;;;;;;;;5030114;28;20045;-68
2022/01/15 07:41:43;;;;;;;25.97;9.50;;;;;;;;;;5030272;28;20068;-67
2022/01/15 07:44:09;;;;;;;21.90;9.47;;;;;;;;;;5030197;28;20058;-68
2022/01/15 07:46:36;;;;;;;26.93;10.37;;;;;;;;;;5030870;28;20049;-68
2022/01/15 07:49:02;;;;;;;29.33;11.17;;;;;;;;;;5030266;28;20049;-69
2022/01/15 07:51:28;;;;;;;39.30;11.93;;;;;;;;;;5030256;28;20045;-68
2022/01/15 07:53:54;;;;;;;32.13;12.13;;;;;;;;;;5029364;28;20100;-68
2022/01/15 07:56:20;;;;;;;29.43;11.67;;;;;;;;;;5030516;28;21108;-68
2022/01/15 07:58:46;;;;;;;34.20;11.93;;;;;;;;;;5030854;28;20049;-68
2022/01/15 08:01:12;;;;;;;39.07;13.67;;;;;;;;;;5030125;28;20044;-68
2022/01/15 08:03:38;;;;;;;35.97;13.83;;;;;;;;;;5030461;28;20049;-68
2022/01/15 08:06:04;;;;;;;35.10;13.50;;;;;;;;;;5031188;28;20095;-68
2022/01/15 08:08:30;;;;;;;30.53;12.57;;;;;;;;;;5030057;28;20522;-68
2022/01/15 08:10:56;;;;;;;32.13;12.23;;;;;;;;;;5028572;28;20046;-68
2022/01/15 08:13:22;;;;;;;30.20;12.30;;;;;;;;;;5029561;28;20073;-68
2022/01/15 08:15:50;;;;;;;29.67;12.60;;;;;;;;;;5028919;28;20052;-68
2022/01/15 08:18:18;;;;;;;35.07;14.53;;;;;;;;;;5028595;28;20061;-68
2022/01/15 08:20:44;;;;;;;31.73;13.33;;;;;;;;;;5029802;28;20065;-68
2022/01/15 08:23:10;;;;;;;29.77;13.47;;;;;;;;;;5030320;28;20049;-68
2022/01/15 08:25:36;;;;;;;30.83;13.47;;;;;;;;;;5028217;28;20042;-68
2022/01/15 08:28:03;;;;;;;31.27;13.40;;;;;;;;;;5028981;28;20172;-68
2022/01/15 08:30:29;;;;;;;36.10;14.87;;;;;;;;;;5030363;28;20049;-68
2022/01/15 08:32:55;;;;;;;31.13;14.30;;;;;;;;;;5029054;28;20108;-68
2022/01/15 08:35:20;;;;;;;36.93;18.30;;;;;;;;;;5025026;28;20596;-69
2022/01/15 08:37:46;;;;;;;38.70;16.73;;;;;;;;;;5037314;28;20133;-69
2022/01/15 08:40:13;;;;;;;42.80;18.00;;;;;;;;;;5034901;28;20041;-69
2022/01/15 08:42:40;;;;;;;43.07;19.23;;;;;;;;;;5039713;28;20041;-69
2022/01/15 08:45:07;;;;;;;45.10;19.90;;;;;;;;;;5034086;28;20041;-70
2022/01/15 08:47:33;;;;;;;44.17;18.33;;;;;;;;;;5039771;28;20046;-69
2022/01/15 08:50:00;;;;;;;48.30;20.80;;;;;;;;;;5038140;28;20041;-70
2022/01/15 08:52:26;;;;;;;54.40;20.03;;;;;;;;;;5037615;28;20052;-69
2022/01/15 08:54:52;;;;;;;50.10;19.23;;;;;;;;;;5036025;28;20046;-67
2022/01/15 08:57:18;;;;;;;48.93;18.40;;;;;;;;;;5036641;28;20045;-67
2022/01/15 08:59:44;;;;;;;40.63;16.83;;;;;;;;;;5037812;28;20038;-68
2022/01/15 09:02:10;;;;;;;43.60;18.03;;;;;;;;;;5039547;28;20064;-68
2022/01/15 09:04:37;;;;;;;44.83;19.83;;;;;;;;;;5040409;28;20088;-68
2022/01/15 09:07:03;;;;;;;57.60;22.47;;;;;;;;;;5038760;28;20067;-68
2022/01/15 09:09:29;;;;;;;46.73;20.30;;;;;;;;;;5038895;28;20135;-68
2022/01/15 09:11:55;;;;;;;47.23;20.90;;;;;;;;;;5035677;28;20183;-68
2022/01/15 09:14:21;;;;;;;41.97;18.33;;;;;;;;;;5037356;28;20112;-68
2022/01/15 09:16:47;;;;;;;45.20;18.00;;;;;;;;;;5038218;28;20462;-68
2022/01/15 09:19:13;;;;;;;43.93;19.30;;;;;;;;;;5043077;28;20067;-68
2022/01/15 09:21:39;;;;;;;50.80;18.73;;;;;;;;;;5029617;28;20053;-69
2022/01/15 09:24:05;;;;;;;53.10;20.13;;;;;;;;;;5031465;28;20131;-69
2022/01/15 09:27:00;;;;;;;47.60;18.50;;;;;;;;;;5038252;28;20048;-68
2022/01/15 09:32:12;;;;;;;42.13;17.30;;;;;;;;;;5038755;28;20041;-68
2022/01/15 09:34:38;;;;;;;40.20;17.00;;;;;;;;;;5020455;28;20049;-68
2022/01/15 09:37:06;;;;;;;40.90;16.03;;;;;;;;;;5040434;28;20041;-68
2022/01/15 09:39:33;;;;;;;35.53;13.97;;;;;;;;;;5039769;28;20049;-68
2022/01/15 09:41:59;;;;;;;31.33;14.23;;;;;;;;;;5036912;28;20563;-69
2022/01/15 09:44:25;;;;;;;32.80;13.87;;;;;;;;;;5036017;28;20128;-68
2022/01/15 09:46:52;;;;;;;27.27;13.03;;;;;;;;;;5036262;28;20051;-68
2022/01/15 09:49:19;;;;;;;29.67;12.73;;;;;;;;;;5035540;28;20099;-69
2022/01/15 09:51:46;;;;;;;23.17;11.50;;;;;;;;;;5032541;28;20055;-69
2022/01/15 09:54:15;;;;;;;23.67;11.80;;;;;;;;;;5033176;28;20775;-68
2022/01/15 09:56:41;;;;;;;22.50;10.60;;;;;;;;;;5033571;28;20034;-68
2022/01/15 09:59:07;;;;;;;25.33;12.70;;;;;;;;;;5041979;28;20548;-68
2022/01/15 10:01:33;;;;;;;24.60;12.23;;;;;;;;;;5044600;28;20132;-70
2022/01/15 10:04:00;;;;;;;26.40;14.63;;;;;;;;;;5048826;28;20138;-67
2022/01/15 10:06:26;;;;;;;32.17;15.80;;;;;;;;;;5045715;28;20168;-67
2022/01/15 10:09:00;;;;;;;37.33;17.23;;;;;;;;;;5028264;28;20507;-68
2022/01/15 10:11:25;;;;;;;;;;;;;;;;;;5029502;28;20048;-67
2022/01/15 10:13:51;;;;;;;32.90;15.57;;;;;;;;;;5029086;28;19921;-68
2022/01/15 10:16:17;;;;;;;26.20;14.77;;;;;;;;;;5039147;28;20045;-68
2022/01/15 10:18:47;;;;;;;33.57;16.73;;;;;;;;;;5039803;28;20057;-68
2022/01/15 10:21:14;;;;;;;32.60;16.00;;;;;;;;;;5028768;28;20407;-68
2022/01/15 10:23:46;;;;;;;31.83;16.43;;;;;;;;;;5033758;28;20512;-68
2022/01/15 10:26:12;;;;;;;31.53;16.43;;;;;;;;;;5027069;28;20049;-67
2022/01/15 10:28:59;;;;;;;35.67;17.60;;;;;;;;;;5036560;28;20046;-68
2022/01/15 10:31:38;;;;;;;34.30;18.17;;;;;;;;;;5025738;28;20519;-68
2022/01/15 10:34:23;;;;;;;43.07;19.87;;;;;;;;;;5025449;28;20053;-68
2022/01/15 10:36:49;;;;;;;37.70;20.80;;;;;;;;;;5008955;28;20526;-67
2022/01/15 10:39:16;;;;;;;37.10;18.17;;;;;;;;;;5026781;28;20045;-68
2022/01/15 10:41:42;;;;;;;37.90;18.87;;;;;;;;;;5026810;28;20514;-68
2022/01/15 10:44:28;;;;;;;39.53;19.70;;;;;;;;;;5026183;28;20052;-68
2022/01/15 10:47:00;;;;;;;41.20;19.33;;;;;;;;;;5026991;28;20046;-68
2022/01/15 10:49:26;;;;;;;33.83;17.50;;;;;;;;;;5027132;28;20049;-69
2022/01/15 10:52:06;;;;;;;38.33;18.67;;;;;;;;;;5027276;28;20411;-67
2022/01/15 10:54:34;;;;;;;34.63;16.90;;;;;;;;;;5028216;28;20580;-68
2022/01/15 10:57:07;;;;;;;32.53;16.57;;;;;;;;;;5028399;28;20041;-68
2022/01/15 10:59:33;;;;;;;31.17;16.13;;;;;;;;;;5031273;28;20065;-68
2022/01/15 11:02:21;;;;;;;29.53;16.03;;;;;;;;;;5030408;28;20459;-68
2022/01/15 11:04:47;;;;;;;32.67;15.40;;;;;;;;;;5030331;28;20057;-68
2022/01/15 11:07:14;;;;;;;29.23;15.90;;;;;;;;;;5029634;28;20049;-68
2022/01/15 11:09:43;;;;;;;32.93;17.60;;;;;;;;;;5031586;28;20683;-68
2022/01/15 11:12:09;;;;;;;33.23;17.10;;;;;;;;;;5031464;28;20060;-68
2022/01/15 11:14:36;;;;;;;34.03;17.73;;;;;;;;;;5030328;28;20045;-67
2022/01/15 11:17:02;;;;;;;35.77;17.30;;;;;;;;;;5029881;28;20063;-67
2022/01/15 11:19:30;;;;;;;39.07;18.90;;;;;;;;;;5031530;28;20061;-68
2022/01/15 11:21:57;;;;;;;35.40;16.13;;;;;;;;;;5030044;28;20128;-68
2022/01/15 11:24:24;;;;;;;37.00;19.13;;;;;;;;;;5029802;28;20050;-68
2022/01/15 11:26:57;;;;;;;32.37;16.47;;;;;;;;;;5030030;28;20124;-68
2022/01/15 11:29:24;;;;;;;38.47;18.83;;;;;;;;;;5031085;28;20049;-68
2022/01/15 11:31:53;;;;;;;35.73;17.77;;;;;;;;;;5030689;28;20049;-68
2022/01/15 11:34:20;;;;;;;42.40;18.87;;;;;;;;;;5029782;28;20568;-68
2022/01/15 11:36:47;;;;;;;40.37;18.47;;;;;;;;;;5029693;28;20132;-68
2022/01/15 11:39:13;;;;;;;48.40;19.33;;;;;;;;;;5030960;28;20053;-68
2022/01/15 11:41:43;;;;;;;47.60;19.93;;;;;;;;;;5030334;28;20049;-68
2022/01/15 11:44:10;;;;;;;52.53;21.57;;;;;;;;;;5030736;28;20095;-68
2022/01/15 11:46:47;;;;;;;40.70;20.87;;;;;;;;;;5030894;28;20564;-68
2022/01/15 11:49:32;;;;;;;43.30;20.73;;;;;;;;;;5029878;28;20132;-68
2022/01/15 11:51:58;;;;;;;42.53;19.33;;;;;;;;;;5030753;28;20060;-68
2022/01/15 11:54:24;;;;;;;44.27;20.57;;;;;;;;;;5029473;28;20049;-68
2022/01/15 11:56:50;;;;;;;42.03;20.67;;;;;;;;;;5029230;28;20491;-68
2022/01/15 11:59:31;;;;;;;52.33;21.73;;;;;;;;;;5029261;28;20041;-68
2022/01/15 12:01:59;;;;;;;55.43;21.97;;;;;;;;;;5029790;28;20457;-68
2022/01/15 12:04:35;;;;;;;51.87;21.73;;;;;;;;;;5029264;28;20061;-68
2022/01/15 12:07:02;;;;;;;52.17;23.57;;;;;;;;;;5029174;28;20084;-68
2022/01/15 12:09:35;;;;;;;50.60;23.23;;;;;;;;;;5029106;28;20045;-69
2022/01/15 12:12:02;;;;;;;52.42;23.38;;;;;;;;;;5029209;28;20503;-69
2022/01/15 12:14:47;;;;;;;46.17;19.47;;;;;;;;;;5028981;28;20499;-69
2022/01/15 12:17:31;;;;;;;38.37;18.17;;;;;;;;;;5029986;28;20096;-69
2022/01/15 12:19:58;;;;;;;47.73;20.27;;;;;;;;;;5030294;28;20053;-69
2022/01/15 12:22:45;;;;;;;53.37;21.93;;;;;;;;;;5028681;28;20053;-68
2022/01/15 12:25:12;;;;;;;48.33;21.97;;;;;;;;;;5045213;28;20049;-68
2022/01/15 12:27:39;;;;;;;50.00;22.63;;;;;;;;;;5028901;28;20110;-69
2022/01/15 12:30:13;;;;;;;51.80;22.47;;;;;;;;;;5030379;28;20095;-69
2022/01/15 12:32:41;;;;;;;49.20;21.27;;;;;;;;;;5030078;28;20500;-69
2022/01/15 12:35:20;;;;;;;48.23;22.17;;;;;;;;;;5028561;28;20050;-69
2022/01/15 12:38:07;;;;;;;46.70;21.47;;;;;;;;;;5030003;28;20056;-69
2022/01/15 12:40:33;;;;;;;45.70;19.93;;;;;;;;;;5028583;28;20163;-68
2022/01/15 12:43:00;;;;;;;51.57;22.23;;;;;;;;;;5030142;28;20136;-68
2022/01/15 12:45:26;;;;;;;47.93;21.60;;;;;;;;;;5028514;28;20050;-69
2022/01/15 12:47:53;;;;;;;50.27;21.30;;;;;;;;;;5029389;28;20824;-69
2022/01/15 12:50:19;;;;;;;48.43;21.27;;;;;;;;;;5029933;28;20553;-69
2022/01/15 12:52:45;;;;;;;49.97;23.77;;;;;;;;;;5029436;28;20053;-69
2022/01/15 12:55:11;;;;;;;57.07;24.43;;;;;;;;;;5028293;28;20083;-69
2022/01/15 12:57:47;;;;;;;50.90;24.13;;;;;;;;;;5029546;28;20045;-69
2022/01/15 13:00:20;;;;;;;60.47;24.17;;;;;;;;;;5028279;28;20123;-69
2022/01/15 13:02:46;;;;;;;54.50;24.25;;;;;;;;;;5029596;28;20042;-68
2022/01/15 13:05:13;;;;;;;65.23;26.00;;;;;;;;;;5028266;28;20041;-68
2022/01/15 13:07:53;;;;;;;61.90;25.77;;;;;;;;;;5028666;28;20103;-68
2022/01/15 13:10:30;;;;;;;53.13;24.00;;;;;;;;;;5028696;28;20041;-68
2022/01/15 13:12:56;;;;;;;50.53;23.00;;;;;;;;;;5029444;28;20049;-69
2022/01/15 13:15:26;;;;;;;69.30;26.00;;;;;;;;;;5028241;28;20515;-68
2022/01/15 13:17:52;;;;;;;65.97;25.70;;;;;;;;;;5028631;28;20062;-68
2022/01/15 13:20:32;;;;;;;82.03;27.47;;;;;;;;;;5028458;28;20076;-69
2022/01/15 13:22:58;;;;;;;66.63;26.93;;;;;;;;;;5029106;28;20049;-68
2022/01/15 13:25:25;;;;;;;61.73;26.40;;;;;;;;;;5029398;28;20050;-68
2022/01/15 13:27:52;;;;;;;66.23;26.17;;;;;;;;;;5027273;28;20502;-69
2022/01/15 13:30:22;;;;;;;62.77;25.37;;;;;;;;;;5028094;28;20045;-68
2022/01/15 13:32:52;;;;;;;67.17;27.77;;;;;;;;;;5028689;28;20045;-68
2022/01/15 13:35:19;;;;;;;64.83;26.07;;;;;;;;;;5027472;28;20515;-69
2022/01/15 13:37:56;;;;;;;61.63;27.13;;;;;;;;;;5027555;28;20073;-68
2022/01/15 13:40:26;;;;;;;71.33;26.67;;;;;;;;;;5027508;28;20132;-68
2022/01/15 13:42:52;;;;;;;65.27;27.13;;;;;;;;;;5028832;28;20167;-69
2022/01/15 13:45:18;;;;;;;67.73;27.03;;;;;;;;;;5028522;28;20131;-69
2022/01/15 13:47:44;;;;;;;60.53;26.40;;;;;;;;;;5028481;28;20048;-69
2022/01/15 13:53:10;;;;;;;65.10;26.43;;;;;;;;;;5028867;28;20054;-68
2022/01/15 13:55:36;;;;;;;63.57;26.30;;;;;;;;;;5029043;28;20053;-68
2022/01/15 13:58:12;;;;;;;63.50;25.27;;;;;;;;;;5035738;28;20044;-69
2022/01/15 14:00:39;;;;;;;58.93;26.50;;;;;;;;;;5034015;28;20073;-69
2022/01/15 14:03:05;;;;;;;60.07;25.03;;;;;;;;;;5034360;28;20499;-68
2022/01/15 14:05:31;;;;;;;52.90;24.90;;;;;;;;;;5030062;28;20049;-69
2022/01/15 14:07:58;;;;;;;61.40;27.53;;;;;;;;;;5027335;28;20053;-69
2022/01/15 14:10:28;;;;;;;65.07;26.97;;;;;;;;;;5027706;28;20056;-68
2022/01/15 14:13:01;;;;;;;64.93;29.10;;;;;;;;;;5028610;28;20053;-69
2022/01/15 14:15:44;;;;;;;64.53;26.87;;;;;;;;;;5035195;28;20142;-69
2022/01/15 14:18:16;;;;;;;64.67;27.73;;;;;;;;;;5035154;28;20941;-69
2022/01/15 14:23:34;;;;;;;59.07;28.90;;;;;;;;;;5036088;28;20041;-70
2022/01/15 14:26:16;;;;;;;63.93;27.07;;;;;;;;;;5033096;28;20487;-69
2022/01/15 14:28:42;;;;;;;51.50;25.47;;;;;;;;;;5033476;28;20044;-69
2022/01/15 14:31:08;;;;;;;56.87;26.80;;;;;;;;;;5036050;28;20048;-69
2022/01/15 14:33:34;;;;;;;61.40;26.43;;;;;;;;;;5042185;28;20546;-70
2022/01/15 14:36:03;;;;;;;64.77;26.13;;;;;;;;;;5040792;28;20041;-70
2022/01/15 14:38:29;;;;;;;63.77;27.20;;;;;;;;;;5040407;28;20046;-69
2022/01/15 14:40:55;;;;;;;60.87;26.03;;;;;;;;;;5038974;28;20072;-70
2022/01/15 14:43:22;;;;;;;60.73;28.20;;;;;;;;;;5041696;28;20033;-69
2022/01/15 14:45:49;;;;;;;67.87;30.00;;;;;;;;;;5040044;28;20189;-69